ADDS METAR Data INFO
IDs: Format: Raw Decoded Include TAF

Data at: 1357 UTC 17 Dec 2017

KJYG 171355Z AUTO 36003KT 7SM CLR M06/M07 A3006 RMK AO2
KJYG 171335Z AUTO 33005KT 7SM CLR M06/M07 A3008 RMK AO2
KJYG 171315Z AUTO 33005KT 7SM CLR M06/M07 A3009 RMK AO2
KJYG 171255Z AUTO 33003KT 7SM CLR M06/M07 A3009 RMK AO2
KJYG 171235Z AUTO 00000KT 7SM CLR M06/M07 A3010 RMK AO2
KJYG 171215Z AUTO 00000KT 7SM CLR M06/M07 A3010 RMK AO2
KJYG 171155Z AUTO 00000KT 7SM CLR M06/M07 A3009 RMK AO2
KJYG 171135Z AUTO 01004KT 7SM SCT009 M05/M06 A3007 RMK AO2
KJYG 171115Z AUTO 02005KT 7SM BKN009 M04/M06 A3006 RMK AO2
KJYG 171055Z AUTO 03003KT 7SM OVC009 M04/M05 A3007 RMK AO2
KJYG 171035Z AUTO 36005KT 5SM BR OVC009 M03/M04 A3007 RMK AO2
KJYG 171015Z AUTO 03005KT 5SM BR OVC007 M03/M04 A3008 RMK AO2
KJYG 170955Z AUTO 01006KT 5SM BR OVC005 M03/M04 A3008 RMK AO2
KJYG 170935Z AUTO 35006KT 4SM BR OVC005 M03/M04 A3009 RMK AO2
KJYG 170915Z AUTO 02005KT 4SM BR OVC005 M03/M04 A3008 RMK AO2
KJYG 170855Z AUTO 02006KT 4SM BR OVC005 M03/M04 A3008 RMK AO2
KJYG 170835Z AUTO 04005KT 4SM BR OVC005 M03/M04 A3007 RMK AO2
KJYG 170815Z AUTO 35005KT 4SM BR OVC005 M03/M03 A3008 RMK AO2
KJYG 170756Z AUTO 01004KT 4SM BR OVC005 M03/M03 A3008 RMK AO2
KJYG 170735Z AUTO 00000KT 4SM BR OVC005 M03/M03 A3009 RMK AO2
KJYG 170715Z AUTO 04003KT 4SM BR OVC005 M03/M03 A3009 RMK AO2
KJYG 170656Z AUTO 00000KT 4SM BR OVC005 M03/M03 A3008 RMK AO2
KJYG 170635Z AUTO 35005KT 4SM BR OVC005 M03/M03 A3007 RMK AO2
KJYG 170615Z AUTO 02004KT 4SM BR OVC007 M03/M03 A3008 RMK AO2
KJYG 170555Z AUTO 00000KT 4SM BR OVC007 M03/M03 A3008 RMK AO2
KJYG 170535Z AUTO 01008KT 4SM BR OVC007 M03/M03 A3007 RMK AO2
KJYG 170515Z AUTO 04006KT 5SM BR OVC007 M03/M03 A3008 RMK AO2
KJYG 170455Z AUTO 02007KT 5SM BR OVC007 M02/M03 A3007 RMK AO2
KJYG 170435Z AUTO 04005KT 5SM BR OVC007 M02/M03 A3008 RMK AO2
KJYG 170415Z AUTO 05005KT 5SM BR OVC007 M02/M03 A3009 RMK AO2
KJYG 170355Z AUTO 01006KT 5SM BR OVC007 M02/M03 A3009 RMK AO2
KJYG 170335Z AUTO 02005KT 5SM BR OVC009 M02/M03 A3009 RMK AO2
KJYG 170315Z AUTO 03003KT 5SM BR OVC009 M02/M03 A3008 RMK AO2
KJYG 170255Z AUTO 02006KT 7SM OVC009 M02/M03 A3008 RMK AO2
KJYG 170235Z AUTO 36005KT 7SM OVC009 M02/M03 A3007 RMK AO2
KJYG 170215Z AUTO 35004KT 7SM BKN009 M02/M03 A3007 RMK AO2
KJYG 170155Z AUTO 01005KT 7SM SCT009 M03/M03 A3006 RMK AO2
KJYG 170136Z AUTO 01004KT 7SM CLR M03/M04 A3006 RMK AO2
KJYG 170115Z AUTO 02004KT 7SM CLR M03/M04 A3004 RMK AO2
KJYG 170055Z AUTO 01005KT 7SM CLR M03/M04 A3003 RMK AO2
KJYG 170035Z AUTO 01005KT 7SM SCT120 M02/M03 A3003 RMK AO2
KJYG 170015Z AUTO 01007KT 7SM CLR M02/M03 A3001 RMK AO2
KJYG 162355Z AUTO 01007KT 10SM CLR M02/M03 A3000 RMK AO2
KJYG 162335Z AUTO 01006KT 10SM SCT016 M01/M03 A2999 RMK AO2
KJYG 162315Z AUTO 01006KT 10SM SCT016 M01/M03 A3000 RMK AO2
KJYG 162255Z AUTO 36004KT 10SM SCT016 00/M03 A2999 RMK AO2
KJYG 162235Z AUTO 35004KT 10SM CLR 01/M02 A2998 RMK AO2
KJYG 162215Z AUTO 01005KT 10SM CLR 02/M02 A2996 RMK AO2
KJYG 162155Z AUTO 35008KT 10SM CLR 02/M02 A2994 RMK AO2
KJYG 162135Z AUTO 34008KT 10SM CLR 02/M02 A2993 RMK AO2
KJYG 162115Z AUTO 35010KT 10SM CLR 02/M01 A2992 RMK AO2
KJYG 162055Z AUTO 34009KT 10SM CLR 03/M01 A2992 RMK AO2
KJYG 162035Z AUTO 33008KT 10SM CLR 03/M01 A2991 RMK AO2
KJYG 162015Z AUTO 34006KT 10SM CLR 03/M01 A2990 RMK AO2
KJYG 161955Z AUTO 33008KT 10SM CLR 03/M01 A2989 RMK AO2
KJYG 161935Z AUTO 32008KT 10SM CLR 04/M01 A2988 RMK AO2
KJYG 161915Z AUTO 32008KT 10SM CLR 04/M01 A2987 RMK AO2
KJYG 161855Z AUTO 31006KT 10SM SCT070 03/M01 A2986 RMK AO2
KJYG 161835Z AUTO 31007KT 10SM CLR 03/M01 A2987 RMK AO2
KJYG 161815Z AUTO 31008KT 10SM CLR 03/M01 A2986 RMK AO2
KJYG 161755Z AUTO 32009KT 10SM CLR 03/M01 A2986 RMK AO2
KJYG 161735Z AUTO 32008KT 10SM CLR 03/M02 A2985 RMK AO2
KJYG 161715Z AUTO 32006KT 10SM SCT070 02/M02 A2985 RMK AO2
KJYG 161655Z AUTO 31005KT 10SM SCT070 02/M02 A2985 RMK AO2
KJYG 161635Z AUTO 31007KT 10SM CLR 01/M02 A2984 RMK AO2
KJYG 161615Z AUTO 29006KT 10SM CLR 01/M02 A2983 RMK AO2
KJYG 161555Z AUTO 30006KT 10SM CLR 01/M02 A2982 RMK AO2
KJYG 161535Z AUTO 32008KT 10SM CLR 00/M02 A2980 RMK AO2
KJYG 161515Z AUTO 32006KT 10SM CLR 00/M02 A2979 RMK AO2
KJYG 161455Z AUTO 30005KT 10SM CLR M01/M03 A2978 RMK AO2
KJYG 161435Z AUTO 30004KT 10SM CLR M02/M03 A2976 RMK AO2
KJYG 161415Z AUTO 30004KT 10SM CLR M02/M04 A2975 RMK AO2
KJYG 161355Z AUTO 29008KT 10SM CLR M02/M04 A2975 RMK AO2
KJYG 161335Z AUTO 29009KT 10SM CLR M01/M03 A2973 RMK AO2
KJYG 161315Z AUTO 28005KT 10SM CLR M04/M06 A2972 RMK AO2
KJYG 161255Z AUTO 26006KT 10SM CLR M04/M06 A2971 RMK AO2
KJYG 161235Z AUTO 22007KT 10SM CLR M03/M04 A2970 RMK AO2
KJYG 161215Z AUTO 22004KT 10SM CLR M03/M04 A2969 RMK AO2
KJYG 161155Z AUTO 24005KT 10SM CLR M02/M04 A2970 RMK AO2
KJYG 161135Z AUTO 28005KT 10SM CLR M03/M04 A2968 RMK AO2
KJYG 161115Z AUTO 26003KT 10SM CLR M03/M04 A2968 RMK AO2
KJYG 161055Z AUTO 22003KT 10SM CLR M02/M04 A2967 RMK AO2
KJYG 161035Z AUTO 19003KT 10SM CLR M01/M03 A2966 RMK AO2
KJYG 161015Z AUTO 18004KT 10SM CLR M01/M03 A2965 RMK AO2
KJYG 160955Z AUTO 21004KT 10SM CLR M01/M03 A2964 RMK AO2
KJYG 160935Z AUTO 21004KT 10SM CLR 00/M03 A2963 RMK AO2
KJYG 160915Z AUTO 23004KT 10SM CLR 01/M03 A2963 RMK AO2
KJYG 160855Z AUTO 22003KT 10SM CLR 00/M03 A2964 RMK AO2
KJYG 160835Z AUTO 00000KT 10SM CLR 01/M03 A2963 RMK AO2
KJYG 160815Z AUTO 18004KT 10SM CLR 01/M02 A2963 RMK AO2
KJYG 160755Z AUTO 19004KT 10SM CLR 01/M02 A2963 RMK AO2
KJYG 160735Z AUTO 00000KT 10SM CLR 01/M02 A2963 RMK AO2
KJYG 160715Z AUTO 00000KT 10SM SCT090 01/M02 A2963 RMK AO2
KJYG 160655Z AUTO 21003KT 10SM CLR 02/M02 A2962 RMK AO2
KJYG 160635Z AUTO 20003KT 10SM CLR 01/M03 A2962 RMK AO2
KJYG 160615Z AUTO 19006KT 10SM CLR 01/M03 A2962 RMK AO2
KJYG 160555Z AUTO 18007KT 10SM CLR 02/M03 A2962 RMK AO2
KJYG 160535Z AUTO 18008KT 10SM SCT110 02/M03 A2963 RMK AO2
KJYG 160515Z AUTO 16006KT 10SM BKN110 02/M03 A2964 RMK AO2
KJYG 160455Z AUTO 16007KT 10SM BKN110 02/M03 A2965 RMK AO2
KJYG 160437Z AUTO 14005KT 10SM SCT070 120 01/M03 A2965 RMK AO2
KJYG 160415Z AUTO 13005KT 10SM SCT120 00/M03 A2965 RMK AO2
KJYG 160355Z AUTO 12004KT 10SM CLR M01/M03 A2966 RMK AO2
KJYG 160335Z AUTO 00000KT 10SM CLR 00/M03 A2967 RMK AO2
KJYG 160315Z AUTO 15003KT 10SM CLR 02/M03 A2967 RMK AO2
KJYG 160255Z AUTO 15006KT 10SM SCT080 02/M03 A2967 RMK AO2
KJYG 160235Z AUTO 17005KT 10SM SCT090 02/M03 A2968 RMK AO2
KJYG 160215Z AUTO 17005KT 10SM BKN090 02/M03 A2969 RMK AO2